Time;durP1;ratioP1;P1;durP2;ratioP2;P2;SDS_P1;SDS_P2;PMS_P1;PMS_P2;Temp;Humidity;BMP_temperature;BMP_pressure;BME280_temperature;BME280_humidity;BME280_pressure;Samples;Min_cycle;Max_cycle;Signal;HPM_P1;HPM_P2
2024/01/19 00:01:23;;;;;;;11.88;7.03;;;-3.00;99.90;;;;;;5030526;28;20447;-52
2024/01/19 00:03:49;;;;;;;14.85;7.97;;;-3.10;99.90;;;;;;5030484;28;20034;-48
2024/01/19 00:06:15;;;;;;;11.60;6.47;;;-3.20;99.90;;;;;;5030476;28;20029;-54
2024/01/19 00:08:41;;;;;;;13.65;7.30;;;-3.20;99.90;;;;;;5029070;28;20032;-54
2024/01/19 00:11:13;;;;;;;14.65;7.45;;;-3.20;99.90;;;;;;5030098;28;20018;-48
2024/01/19 00:13:39;;;;;;;13.02;6.40;;;-3.20;99.90;;;;;;5030784;28;20032;-49
2024/01/19 00:16:04;;;;;;;14.35;7.25;;;-3.20;99.90;;;;;;5030309;28;20033;-52
2024/01/19 00:18:30;;;;;;;11.70;7.30;;;-3.20;99.90;;;;;;5029755;28;20021;-49
2024/01/19 00:20:56;;;;;;;12.10;6.53;;;-3.20;99.90;;;;;;5030621;28;20061;-56
2024/01/19 00:23:21;;;;;;;16.40;7.32;;;-3.30;99.90;;;;;;5030116;28;20040;-52
2024/01/19 00:25:47;;;;;;;17.42;7.40;;;-3.30;99.90;;;;;;5029773;28;20029;-51
2024/01/19 00:28:13;;;;;;;14.43;7.47;;;-3.30;99.90;;;;;;5028851;28;20489;-55
2024/01/19 00:30:38;;;;;;;12.45;7.32;;;-3.30;99.90;;;;;;5028969;28;20392;-50
2024/01/19 00:33:04;;;;;;;16.02;6.55;;;-3.20;99.90;;;;;;5030008;28;20021;-51
2024/01/19 00:35:29;;;;;;;12.65;6.28;;;-3.30;99.90;;;;;;5031624;28;20029;-53
2024/01/19 00:37:55;;;;;;;13.63;6.97;;;-3.30;99.90;;;;;;5050388;28;20047;-51
2024/01/19 00:40:21;;;;;;;13.55;6.68;;;-3.40;99.90;;;;;;5049833;28;20037;-52
2024/01/19 00:42:46;;;;;;;14.63;6.70;;;-3.40;99.90;;;;;;5049755;28;20071;-54
2024/01/19 00:45:12;;;;;;;15.45;7.75;;;-3.50;99.90;;;;;;5049731;28;20037;-54
2024/01/19 00:47:38;;;;;;;13.93;6.55;;;-3.50;99.90;;;;;;5049617;28;20142;-49
2024/01/19 00:50:06;;;;;;;11.57;6.40;;;-3.50;99.90;;;;;;5049915;28;20044;-54
2024/01/19 00:52:31;;;;;;;11.60;6.07;;;-3.50;99.90;;;;;;5048505;28;20231;-54
2024/01/19 00:54:57;;;;;;;17.98;8.48;;;-3.40;99.90;;;;;;5041885;28;20385;-57
2024/01/19 00:57:23;;;;;;;16.52;7.30;;;-3.50;99.90;;;;;;5043552;28;20186;-56
2024/01/19 00:59:48;;;;;;;14.18;6.78;;;-3.50;99.90;;;;;;5049710;28;20021;-55
2024/01/19 01:02:14;;;;;;;13.13;6.80;;;-3.50;99.90;;;;;;5049712;28;20049;-50
2024/01/19 01:04:40;;;;;;;18.30;7.60;;;-3.50;99.90;;;;;;5049731;28;20403;-53
2024/01/19 01:07:05;;;;;;;19.00;6.35;;;-3.50;99.90;;;;;;5049767;28;20048;-52
2024/01/19 01:09:31;;;;;;;19.77;6.78;;;-3.50;99.90;;;;;;5049585;28;20025;-51
2024/01/19 01:11:57;;;;;;;13.00;7.57;;;-3.50;99.90;;;;;;5049423;28;20033;-52
2024/01/19 01:14:23;;;;;;;11.52;7.30;;;-3.40;99.90;;;;;;5049691;28;20442;-51
2024/01/19 01:16:48;;;;;;;14.32;7.07;;;-3.50;99.90;;;;;;5049474;28;20036;-52
2024/01/19 01:19:14;;;;;;;11.82;6.78;;;-3.50;99.90;;;;;;5049612;28;20033;-54
2024/01/19 01:21:40;;;;;;;12.13;5.68;;;-3.50;99.90;;;;;;5049507;28;20091;-52
2024/01/19 01:24:05;;;;;;;14.90;7.07;;;-3.40;99.90;;;;;;5049444;28;20021;-49
2024/01/19 01:26:31;;;;;;;13.95;6.60;;;-3.30;99.90;;;;;;5049349;28;20111;-52
2024/01/19 01:28:56;;;;;;;16.45;7.40;;;-3.30;99.90;;;;;;5050516;28;20108;-53
2024/01/19 01:31:22;;;;;;;17.17;7.93;;;-3.40;99.90;;;;;;5053485;28;20052;-51
2024/01/19 01:33:49;;;;;;;11.30;6.30;;;-3.50;99.90;;;;;;5053262;28;20229;-50
2024/01/19 01:36:15;;;;;;;16.13;8.40;;;-3.60;99.90;;;;;;5053102;28;20029;-53
2024/01/19 01:38:40;;;;;;;16.95;7.75;;;-3.70;99.90;;;;;;5053031;28;20032;-57
2024/01/19 01:41:06;;;;;;;15.52;7.57;;;-3.70;99.90;;;;;;5047012;28;20139;-52
2024/01/19 01:43:32;;;;;;;12.82;6.90;;;-3.70;99.90;;;;;;5044874;28;20060;-49
2024/01/19 01:45:57;;;;;;;11.40;6.10;;;-3.70;99.90;;;;;;5053359;28;20033;-50
2024/01/19 01:48:24;;;;;;;15.00;6.25;;;-3.70;99.90;;;;;;5052983;28;20501;-51
2024/01/19 01:50:50;;;;;;;10.70;6.13;;;-3.60;99.90;;;;;;5052516;28;20127;-52
2024/01/19 01:53:18;;;;;;;17.27;6.53;;;-3.60;99.90;;;;;;5052960;28;20204;-52
2024/01/19 01:55:47;;;;;;;10.20;6.05;;;-3.50;99.90;;;;;;5051130;28;20078;-51
2024/01/19 01:58:15;;;;;;;11.68;5.90;;;-3.60;99.90;;;;;;5052950;28;20025;-53
2024/01/19 02:00:42;;;;;;;15.38;6.93;;;-3.60;99.90;;;;;;5052906;28;20074;-55
2024/01/19 02:03:09;;;;;;;15.15;7.00;;;-3.70;99.90;;;;;;5052616;28;20044;-54
2024/01/19 02:05:35;;;;;;;12.52;6.57;;;-3.80;99.90;;;;;;5052741;28;20017;-49
2024/01/19 02:08:01;;;;;;;13.63;7.20;;;-3.70;99.90;;;;;;5032934;28;20029;-51
2024/01/19 02:10:26;;;;;;;15.32;7.32;;;-3.80;99.90;;;;;;5035141;28;20036;-52
2024/01/19 02:12:53;;;;;;;13.52;7.00;;;-3.80;99.90;;;;;;5032380;28;20032;-51
2024/01/19 02:15:21;;;;;;;12.38;6.85;;;-3.90;99.90;;;;;;5032586;28;20045;-48
2024/01/19 02:17:48;;;;;;;8.50;5.15;;;-3.90;99.90;;;;;;5032425;28;20152;-53
2024/01/19 02:20:14;;;;;;;13.05;5.70;;;-4.00;99.90;;;;;;5032491;28;20041;-57
2024/01/19 02:22:42;;;;;;;15.60;6.63;;;-4.00;99.90;;;;;;5024472;28;20057;-51
2024/01/19 02:25:08;;;;;;;13.80;6.35;;;-4.00;99.90;;;;;;5032171;28;20705;-51
2024/01/19 02:27:34;;;;;;;19.10;6.50;;;-3.90;99.90;;;;;;5032373;28;20017;-50
2024/01/19 02:30:01;;;;;;;16.33;6.70;;;-3.80;99.90;;;;;;5032375;28;20022;-50
2024/01/19 02:32:27;;;;;;;12.30;5.80;;;-3.90;99.90;;;;;;5032034;28;20465;-51
2024/01/19 02:34:52;;;;;;;14.70;5.75;;;-3.90;99.90;;;;;;5032192;28;20071;-49
2024/01/19 02:37:19;;;;;;;10.73;5.75;;;-3.90;99.90;;;;;;5048809;28;20082;-48
2024/01/19 02:39:44;;;;;;;11.15;5.35;;;-4.00;99.90;;;;;;5050860;28;20017;-49
2024/01/19 02:42:10;;;;;;;9.70;5.63;;;-3.90;99.90;;;;;;5051231;28;20044;-51
2024/01/19 02:44:36;;;;;;;16.48;6.35;;;-3.80;99.90;;;;;;5052158;28;20125;-47
2024/01/19 02:47:02;;;;;;;14.13;6.15;;;-3.90;99.90;;;;;;5052172;28;20036;-50
2024/01/19 02:49:28;;;;;;;13.20;6.18;;;-3.90;99.90;;;;;;5051788;28;20025;-51
2024/01/19 02:51:54;;;;;;;13.05;6.18;;;-4.10;99.90;;;;;;5041256;28;20406;-52
2024/01/19 02:54:20;;;;;;;11.35;5.15;;;-4.20;99.90;;;;;;5048370;28;20108;-50
2024/01/19 02:56:45;;;;;;;15.80;6.32;;;-4.00;99.90;;;;;;5032635;28;20116;-51
2024/01/19 02:59:11;;;;;;;10.90;5.22;;;-4.00;99.90;;;;;;5031895;28;20025;-50
2024/01/19 03:01:36;;;;;;;10.57;5.90;;;-4.00;99.90;;;;;;5031625;28;20037;-54
2024/01/19 03:04:03;;;;;;;13.38;6.03;;;-4.10;99.90;;;;;;5031472;28;20029;-52
2024/01/19 03:06:29;;;;;;;13.48;6.63;;;-4.20;99.90;;;;;;5031900;28;20480;-49
2024/01/19 03:08:54;;;;;;;12.80;5.97;;;-4.30;99.90;;;;;;5031554;28;20036;-49
2024/01/19 03:11:20;;;;;;;11.60;5.97;;;-4.30;99.90;;;;;;5031631;28;20384;-50
2024/01/19 03:13:46;;;;;;;10.95;5.40;;;-4.30;99.90;;;;;;5031599;28;20025;-51
2024/01/19 03:16:12;;;;;;;12.85;5.30;;;-4.30;99.90;;;;;;5031115;28;20041;-47
2024/01/19 03:18:37;;;;;;;11.02;5.10;;;-4.10;99.90;;;;;;5031534;28;20037;-52
2024/01/19 03:21:03;;;;;;;10.68;5.75;;;-4.10;99.90;;;;;;5031400;28;20028;-53
2024/01/19 03:23:29;;;;;;;13.50;7.10;;;-3.90;99.90;;;;;;5031254;28;20376;-53
2024/01/19 03:25:54;;;;;;;10.45;5.63;;;-3.90;99.90;;;;;;5030910;28;20024;-48
2024/01/19 03:28:20;;;;;;;13.10;6.50;;;-3.90;99.90;;;;;;5031203;28;20381;-51
2024/01/19 03:30:46;;;;;;;10.68;5.53;;;-4.00;99.90;;;;;;5031084;28;20167;-50
2024/01/19 03:33:11;;;;;;;14.95;7.25;;;-4.20;99.90;;;;;;5031068;28;20037;-48
2024/01/19 03:35:37;;;;;;;11.45;5.90;;;-4.30;99.90;;;;;;5031124;28;20032;-48
2024/01/19 03:38:03;;;;;;;10.45;4.95;;;-4.30;99.90;;;;;;5030912;28;20037;-48
2024/01/19 03:40:28;;;;;;;13.60;6.05;;;-4.30;99.90;;;;;;5030885;28;20028;-57
2024/01/19 03:42:54;;;;;;;12.27;6.00;;;-4.30;99.90;;;;;;5030855;28;20021;-51
2024/01/19 03:45:20;;;;;;;9.95;5.53;;;-4.30;99.90;;;;;;5030722;28;20067;-49
2024/01/19 03:47:46;;;;;;;14.77;6.30;;;-4.20;99.90;;;;;;5030978;28;20416;-51
2024/01/19 03:50:12;;;;;;;12.70;6.15;;;-4.20;99.90;;;;;;5028897;28;20025;-49
2024/01/19 03:52:38;;;;;;;11.02;6.75;;;-4.30;99.90;;;;;;5029341;28;20037;-50
2024/01/19 03:55:05;;;;;;;11.85;6.47;;;-4.30;99.90;;;;;;5030274;28;20017;-52
2024/01/19 03:57:30;;;;;;;12.13;6.38;;;-4.40;99.90;;;;;;5030246;28;20243;-49
2024/01/19 03:59:56;;;;;;;14.70;6.85;;;-4.60;99.90;;;;;;5030389;28;20104;-51
2024/01/19 04:02:22;;;;;;;11.15;6.75;;;-4.60;99.90;;;;;;5030294;28;20037;-47
2024/01/19 04:04:48;;;;;;;11.73;5.32;;;-4.70;99.90;;;;;;5030174;28;20064;-48
2024/01/19 04:07:14;;;;;;;11.35;5.25;;;-4.70;99.90;;;;;;5030090;28;20116;-53
2024/01/19 04:09:40;;;;;;;9.65;5.35;;;-4.70;99.90;;;;;;5030453;28;20037;-50
2024/01/19 04:12:16;;;;;;;11.57;6.05;;;-4.70;99.90;;;;;;5030370;28;20037;-48
2024/01/19 04:14:44;;;;;;;10.90;5.50;;;-4.70;99.90;;;;;;5017846;28;20018;-49
2024/01/19 04:17:10;;;;;;;15.57;5.90;;;-4.70;99.90;;;;;;5030275;28;20084;-55
2024/01/19 04:19:37;;;;;;;8.80;5.50;;;-4.60;99.90;;;;;;5030021;28;20009;-49
2024/01/19 04:22:03;;;;;;;14.32;6.57;;;-4.50;99.90;;;;;;5030254;28;20176;-50
2024/01/19 04:24:29;;;;;;;8.77;5.40;;;-4.50;99.90;;;;;;5029868;28;20101;-53
2024/01/19 04:26:55;;;;;;;18.67;5.85;;;-4.50;99.90;;;;;;5028903;28;20029;-54
2024/01/19 04:29:21;;;;;;;11.52;5.32;;;-4.60;99.90;;;;;;5028587;28;20434;-50
2024/01/19 04:31:46;;;;;;;9.50;5.72;;;-4.70;99.90;;;;;;5030081;28;20053;-49
2024/01/19 04:34:12;;;;;;;12.25;6.80;;;-4.80;99.90;;;;;;5030043;28;20079;-55
2024/01/19 04:36:38;;;;;;;14.65;6.93;;;-4.80;99.90;;;;;;5029869;28;20378;-50
2024/01/19 04:39:04;;;;;;;13.90;5.82;;;-4.90;99.90;;;;;;5030147;28;20037;-50
2024/01/19 04:41:30;;;;;;;10.43;5.15;;;-4.90;99.90;;;;;;5029702;28;20425;-50
2024/01/19 04:43:55;;;;;;;13.18;6.20;;;-4.90;99.90;;;;;;5029862;28;20087;-48
2024/01/19 04:46:21;;;;;;;9.50;5.10;;;-4.90;99.90;;;;;;5029768;28;20025;-52
2024/01/19 04:48:47;;;;;;;12.55;5.30;;;-4.80;99.90;;;;;;5028551;28;20029;-51
2024/01/19 04:51:12;;;;;;;14.10;5.72;;;-4.70;99.90;;;;;;5029910;28;20052;-49
2024/01/19 04:53:39;;;;;;;13.82;5.22;;;-4.60;99.90;;;;;;5029799;28;20437;-53
2024/01/19 04:56:06;;;;;;;9.15;5.07;;;-4.70;99.90;;;;;;5029494;28;20401;-48
2024/01/19 04:58:36;;;;;;;13.15;5.50;;;-4.70;99.90;;;;;;5029673;28;20048;-48
2024/01/19 05:01:03;;;;;;;19.77;5.28;;;-4.70;99.90;;;;;;5029540;28;20053;-53
2024/01/19 05:03:29;;;;;;;8.32;5.05;;;-4.50;99.90;;;;;;5029249;28;20358;-47
2024/01/19 05:05:54;;;;;;;10.68;6.15;;;-4.40;99.90;;;;;;5029625;28;20025;-51
2024/01/19 05:08:20;;;;;;;13.77;5.53;;;-4.30;99.90;;;;;;5029778;28;20025;-49
2024/01/19 05:10:46;;;;;;;13.43;5.82;;;-4.40;99.90;;;;;;5029222;28;20469;-54
2024/01/19 05:13:11;;;;;;;10.00;5.28;;;-4.50;99.90;;;;;;5029615;28;20026;-51
2024/01/19 05:15:38;;;;;;;11.23;5.30;;;-4.50;99.90;;;;;;5029589;28;20384;-56
2024/01/19 05:18:04;;;;;;;9.40;4.57;;;-4.60;99.90;;;;;;5029434;28;20065;-51
2024/01/19 05:20:29;;;;;;;8.98;5.15;;;-4.60;99.90;;;;;;5029646;28;20111;-49
2024/01/19 05:22:55;;;;;;;9.77;6.05;;;-4.50;99.90;;;;;;5029570;28;20506;-48
2024/01/19 05:25:21;;;;;;;11.40;5.85;;;-4.50;99.90;;;;;;5029518;28;20036;-48
2024/01/19 05:27:51;;;;;;;12.63;4.90;;;-4.60;99.90;;;;;;5029172;28;20040;-53
2024/01/19 05:30:17;;;;;;;12.65;5.18;;;-4.60;99.90;;;;;;5029566;28;20034;-55
2024/01/19 05:32:42;;;;;;;9.52;5.25;;;-4.70;99.90;;;;;;5029069;28;20032;-54
2024/01/19 05:35:08;;;;;;;13.05;5.05;;;-4.70;99.90;;;;;;5029498;28;20031;-49
2024/01/19 05:37:34;;;;;;;9.98;4.95;;;-4.80;99.90;;;;;;5029078;28;20481;-51
2024/01/19 05:40:00;;;;;;;16.13;5.22;;;-4.80;99.90;;;;;;5029394;28;20013;-50
2024/01/19 05:42:26;;;;;;;10.60;5.18;;;-4.70;99.90;;;;;;5029232;28;20373;-51
2024/01/19 05:44:51;;;;;;;10.05;5.60;;;-4.70;99.90;;;;;;5029210;28;20022;-47
2024/01/19 05:47:17;;;;;;;11.38;5.28;;;-4.70;99.90;;;;;;5029288;28;20035;-49
2024/01/19 05:49:43;;;;;;;9.32;5.20;;;-4.70;99.90;;;;;;5027871;28;20085;-47
2024/01/19 05:52:08;;;;;;;7.95;5.05;;;-4.70;99.90;;;;;;5029285;28;20025;-48
2024/01/19 05:54:34;;;;;;;11.40;5.63;;;-4.70;99.90;;;;;;5029226;28;20477;-50
2024/01/19 05:57:00;;;;;;;8.98;4.75;;;-4.70;99.90;;;;;;5028953;28;20511;-48
2024/01/19 05:59:25;;;;;;;10.95;5.32;;;-4.70;99.90;;;;;;5029251;28;20061;-51
2024/01/19 06:01:51;;;;;;;9.25;4.07;;;-4.70;99.90;;;;;;5028850;28;20664;-51
2024/01/19 06:04:18;;;;;;;14.45;5.90;;;-4.70;99.90;;;;;;5029034;28;20022;-55
2024/01/19 06:06:43;;;;;;;9.63;4.68;;;-4.80;99.90;;;;;;5029241;28;20032;-51
2024/01/19 06:09:10;;;;;;;11.18;4.90;;;-4.80;99.90;;;;;;5028652;28;20092;-49
2024/01/19 06:11:36;;;;;;;9.45;4.65;;;-4.80;99.90;;;;;;5028048;28;20022;-50
2024/01/19 06:14:02;;;;;;;13.88;5.88;;;-4.90;99.90;;;;;;5028988;28;20429;-47
2024/01/19 06:16:29;;;;;;;10.80;5.07;;;-5.00;99.90;;;;;;5030668;28;20045;-48
2024/01/19 06:18:55;;;;;;;10.77;4.45;;;-4.90;99.90;;;;;;5032513;28;20087;-56
2024/01/19 06:21:20;;;;;;;14.65;5.82;;;-4.90;99.90;;;;;;5027943;28;20034;-50
2024/01/19 06:23:46;;;;;;;15.40;7.45;;;-4.80;99.90;;;;;;5032239;28;20075;-49
2024/01/19 06:26:12;;;;;;;10.98;5.82;;;-4.80;99.90;;;;;;5026651;28;20030;-47
2024/01/19 06:28:41;;;;;;;10.23;6.00;;;-4.80;99.90;;;;;;5032393;28;20021;-52
2024/01/19 06:31:08;;;;;;;;;;;-4.90;99.90;;;;;;5025721;28;20115;-47
2024/01/19 06:33:34;;;;;;;12.75;5.07;;;-4.90;99.90;;;;;;5032629;28;19932;-48
2024/01/19 06:35:59;;;;;;;10.40;5.32;;;-5.00;99.90;;;;;;5024637;28;20559;-53
2024/01/19 06:38:25;;;;;;;8.93;5.00;;;-5.00;99.90;;;;;;5032536;28;20029;-51
2024/01/19 06:40:51;;;;;;;10.30;5.22;;;-5.00;99.90;;;;;;5024672;28;20048;-48
2024/01/19 06:43:17;;;;;;;10.00;4.32;;;-4.90;99.90;;;;;;5022214;28;20098;-51
2024/01/19 06:45:42;;;;;;;9.27;4.95;;;-4.80;99.90;;;;;;5022735;28;20034;-55
2024/01/19 06:48:08;;;;;;;8.77;4.38;;;-4.80;99.90;;;;;;5032602;28;20025;-49
2024/01/19 06:50:34;;;;;;;9.10;4.68;;;-4.80;99.90;;;;;;5031903;28;20041;-52
2024/01/19 06:53:00;;;;;;;11.70;4.38;;;-4.80;99.90;;;;;;5032027;28;20116;-57
2024/01/19 06:55:27;;;;;;;14.25;6.40;;;-4.70;99.90;;;;;;5031723;28;20401;-50
2024/01/19 06:57:53;;;;;;;11.45;5.38;;;-4.70;99.90;;;;;;5031794;28;20034;-52
2024/01/19 07:00:19;;;;;;;11.10;5.47;;;-4.80;99.90;;;;;;5015091;28;20033;-51
2024/01/19 07:02:48;;;;;;;8.57;5.13;;;-4.80;99.90;;;;;;5021814;28;20049;-51
2024/01/19 07:05:14;;;;;;;9.67;5.33;;;-4.80;99.90;;;;;;5032688;28;20030;-51
2024/01/19 07:07:40;;;;;;;10.88;5.35;;;-4.80;99.90;;;;;;5028825;28;20041;-54
2024/01/19 07:10:06;;;;;;;10.75;5.57;;;-4.90;99.90;;;;;;5030570;28;20618;-52
2024/01/19 07:12:32;;;;;;;7.40;5.25;;;-4.90;99.90;;;;;;5027927;28;20029;-48
2024/01/19 07:14:57;;;;;;;11.82;5.35;;;-5.00;99.90;;;;;;5029931;28;20033;-47
2024/01/19 07:17:23;;;;;;;11.90;5.93;;;-5.00;99.90;;;;;;5030855;28;20124;-48
2024/01/19 07:19:48;;;;;;;11.07;6.07;;;-5.00;99.90;;;;;;5030131;28;20021;-47
2024/01/19 07:22:14;;;;;;;11.13;5.53;;;-5.00;99.90;;;;;;5020830;28;20030;-49
2024/01/19 07:24:40;;;;;;;8.85;5.43;;;-5.10;99.90;;;;;;5028671;28;20021;-53
2024/01/19 07:27:05;;;;;;;10.15;5.20;;;-5.10;99.90;;;;;;5029618;28;20129;-49
2024/01/19 07:29:31;;;;;;;9.85;4.75;;;-5.10;99.90;;;;;;5029674;28;20018;-50
2024/01/19 07:31:57;;;;;;;11.35;5.10;;;-5.10;99.90;;;;;;5030029;28;20037;-51
2024/01/19 07:34:24;;;;;;;11.60;5.60;;;-5.20;99.90;;;;;;5030405;28;20552;-53
2024/01/19 07:36:49;;;;;;;9.93;5.43;;;-5.30;99.90;;;;;;5031021;28;20036;-54
2024/01/19 07:39:15;;;;;;;24.08;6.70;;;-5.30;99.90;;;;;;5031269;28;20037;-48
2024/01/19 07:41:41;;;;;;;11.50;5.45;;;-5.30;99.90;;;;;;5029582;28;20124;-50
2024/01/19 07:44:07;;;;;;;9.30;5.32;;;-5.40;99.90;;;;;;5030841;28;20026;-49
2024/01/19 07:46:32;;;;;;;11.40;6.05;;;-5.40;99.90;;;;;;5031349;28;20018;-50
2024/01/19 07:48:58;;;;;;;11.23;5.65;;;-5.40;99.90;;;;;;5025549;28;20485;-47
2024/01/19 07:51:24;;;;;;;9.88;5.32;;;-5.40;99.90;;;;;;5030971;28;20033;-53
2024/01/19 07:53:50;;;;;;;16.33;5.00;;;-5.40;99.90;;;;;;5024266;28;20018;-50
2024/01/19 07:56:16;;;;;;;11.85;8.25;;;-5.40;99.90;;;;;;5014115;28;20048;-52
2024/01/19 07:58:45;;;;;;;12.55;5.82;;;-5.30;99.90;;;;;;5029981;28;20025;-48
2024/01/19 08:01:11;;;;;;;14.10;7.90;;;-5.30;99.90;;;;;;5025738;28;20022;-49
2024/01/19 08:03:38;;;;;;;8.30;5.55;;;-5.30;99.90;;;;;;5013820;28;20461;-47
2024/01/19 08:06:04;;;;;;;7.43;4.95;;;-5.30;99.90;;;;;;5017357;28;20022;-53
2024/01/19 08:08:30;;;;;;;10.20;6.28;;;-5.10;99.90;;;;;;5029530;28;20029;-52
2024/01/19 08:10:55;;;;;;;11.63;5.43;;;-5.10;99.90;;;;;;5024492;28;20519;-47
2024/01/19 08:13:21;;;;;;;12.38;5.40;;;-5.00;99.90;;;;;;5020695;28;20330;-48
2024/01/19 08:15:47;;;;;;;14.80;6.40;;;-4.90;99.90;;;;;;5029129;28;20319;-48
2024/01/19 08:18:13;;;;;;;14.70;6.65;;;-4.90;99.90;;;;;;5030455;28;20041;-51
2024/01/19 08:20:39;;;;;;;11.10;6.15;;;-4.90;99.90;;;;;;5030329;28;20545;-50
2024/01/19 08:23:04;;;;;;;10.65;5.45;;;-4.90;99.90;;;;;;5030384;28;20183;-51
2024/01/19 08:25:30;;;;;;;12.80;5.50;;;-4.80;99.90;;;;;;5027711;28;20060;-49
2024/01/19 08:27:56;;;;;;;13.30;5.43;;;-4.80;99.90;;;;;;5028354;28;20095;-52
2024/01/19 08:30:22;;;;;;;11.18;6.63;;;-4.80;99.90;;;;;;5029160;28;20465;-49
2024/01/19 08:32:47;;;;;;;19.65;7.07;;;-4.70;99.90;;;;;;5027720;28;20048;-48
2024/01/19 08:35:13;;;;;;;16.70;6.82;;;-4.80;99.90;;;;;;5028027;28;20029;-51
2024/01/19 08:37:40;;;;;;;10.07;6.57;;;-4.70;99.90;;;;;;5028499;28;20500;-48
2024/01/19 08:40:07;;;;;;;11.35;5.50;;;-4.70;99.90;;;;;;5029520;28;20040;-50
2024/01/19 08:42:33;;;;;;;15.88;6.30;;;-4.50;99.90;;;;;;5030126;28;20508;-51
2024/01/19 08:44:59;;;;;;;11.10;6.30;;;-4.30;99.90;;;;;;5029907;28;20041;-53
2024/01/19 08:47:25;;;;;;;12.43;6.72;;;-3.90;99.90;;;;;;5021682;28;20053;-51
2024/01/19 08:49:51;;;;;;;15.50;7.40;;;-3.10;99.90;;;;;;5026526;28;20379;-54
2024/01/19 08:52:17;;;;;;;13.25;7.18;;;-1.80;99.90;;;;;;5030129;28;20030;-51
2024/01/19 08:54:43;;;;;;;15.70;9.07;;;0.20;99.90;;;;;;5029805;28;20481;-53
2024/01/19 08:57:08;;;;;;;18.73;7.78;;;2.10;99.90;;;;;;5029552;28;20025;-49
2024/01/19 08:59:34;;;;;;;15.05;6.78;;;3.90;99.90;;;;;;5028814;28;20095;-53
2024/01/19 09:02:00;;;;;;;10.02;5.60;;;5.20;99.90;;;;;;5029591;28;20041;-50
2024/01/19 09:04:25;;;;;;;13.57;5.75;;;6.20;99.90;;;;;;5029591;28;20025;-49
2024/01/19 09:06:51;;;;;;;13.05;5.75;;;7.50;99.90;;;;;;5030370;28;20030;-52
2024/01/19 09:09:17;;;;;;;10.23;5.40;;;8.20;98.70;;;;;;5029536;28;20495;-50
2024/01/19 09:11:43;;;;;;;9.93;5.45;;;8.60;94.90;;;;;;5029894;28;20030;-56
2024/01/19 09:14:10;;;;;;;12.02;5.50;;;9.00;92.50;;;;;;5028608;28;20372;-49
2024/01/19 09:16:36;;;;;;;10.93;5.40;;;9.40;95.10;;;;;;5027821;28;20029;-51
2024/01/19 09:19:02;;;;;;;11.45;5.93;;;8.40;91.60;;;;;;5027824;28;20048;-53
2024/01/19 09:21:28;;;;;;;9.68;5.65;;;7.50;93.40;;;;;;5027852;28;20017;-55
2024/01/19 09:23:53;;;;;;;12.20;6.57;;;5.60;92.10;;;;;;5026669;28;20108;-49
2024/01/19 09:26:20;;;;;;;9.75;6.45;;;4.00;94.30;;;;;;5027488;28;20452;-49
2024/01/19 09:28:46;;;;;;;15.35;6.88;;;2.90;96.70;;;;;;5029115;28;20501;-50
2024/01/19 09:31:15;;;;;;;11.07;6.72;;;2.00;97.90;;;;;;5028500;28;20029;-56
2024/01/19 09:33:41;;;;;;;14.38;6.90;;;1.40;99.60;;;;;;5018948;28;20049;-57
2024/01/19 09:36:08;;;;;;;15.70;6.97;;;0.90;99.90;;;;;;5026271;28;20036;-55
2024/01/19 09:38:35;;;;;;;11.27;6.40;;;0.50;99.90;;;;;;5027982;28;20128;-49
2024/01/19 09:41:09;;;;;;;12.00;6.47;;;0.10;99.90;;;;;;5027830;28;20040;-53
2024/01/19 09:43:40;;;;;;;9.98;5.97;;;-0.20;99.90;;;;;;5029229;28;20021;-53
2024/01/19 09:46:08;;;;;;;15.35;5.93;;;-0.20;99.90;;;;;;5035671;28;20021;-53
2024/01/19 09:48:44;;;;;;;11.45;5.70;;;-0.30;99.90;;;;;;5049138;28;20021;-52
2024/01/19 09:51:10;;;;;;;16.48;5.40;;;-0.30;99.90;;;;;;5049607;28;20051;-51
2024/01/19 09:53:45;;;;;;;11.77;6.35;;;-0.20;99.90;;;;;;5039967;28;20048;-51
2024/01/19 09:56:12;;;;;;;16.77;6.32;;;-0.20;99.90;;;;;;5032879;28;20017;-49
2024/01/19 09:58:38;;;;;;;10.50;6.15;;;-0.20;99.90;;;;;;5032584;28;20099;-54
2024/01/19 10:01:04;;;;;;;11.30;5.93;;;-0.10;99.90;;;;;;5032446;28;20021;-54
2024/01/19 10:03:30;;;;;;;10.70;6.30;;;0.60;99.90;;;;;;5027742;28;20038;-54
2024/01/19 10:05:56;;;;;;;11.75;5.38;;;2.70;99.90;;;;;;5018942;28;20021;-54
2024/01/19 10:08:23;;;;;;;15.57;5.65;;;5.10;99.90;;;;;;5015421;28;20021;-52
2024/01/19 10:10:50;;;;;;;9.25;4.88;;;7.60;99.90;;;;;;5032690;28;20030;-51
2024/01/19 10:13:17;;;;;;;11.30;5.60;;;10.00;96.90;;;;;;5031949;28;20030;-50
2024/01/19 10:15:43;;;;;;;9.95;5.88;;;11.90;95.30;;;;;;5032355;28;20030;-54
2024/01/19 10:18:10;;;;;;;10.38;5.90;;;13.20;90.80;;;;;;5031826;28;20073;-52
2024/01/19 10:20:38;;;;;;;7.47;4.95;;;14.50;89.50;;;;;;5043780;28;20038;-52
2024/01/19 10:23:23;;;;;;;9.60;5.07;;;15.60;86.80;;;;;;5052421;28;20392;-52
2024/01/19 10:25:49;;;;;;;9.70;4.53;;;16.20;82.00;;;;;;5047881;28;20034;-48
2024/01/19 10:28:35;;;;;;;6.47;4.20;;;16.90;77.40;;;;;;5047603;28;20034;-53
2024/01/19 10:31:22;;;;;;;6.57;3.20;;;17.20;72.40;;;;;;5033185;28;20049;-47
2024/01/19 10:33:52;;;;;;;7.53;3.78;;;17.30;68.10;;;;;;5031900;28;20041;-53
2024/01/19 10:36:18;;;;;;;11.02;4.60;;;17.00;66.30;;;;;;5032689;28;20029;-55
2024/01/19 10:38:43;;;;;;;9.05;5.30;;;17.70;68.50;;;;;;5032192;28;20086;-52
2024/01/19 10:41:16;;;;;;;8.00;5.03;;;17.60;68.20;;;;;;5032126;28;20037;-55
2024/01/19 10:43:42;;;;;;;8.38;5.13;;;17.70;66.10;;;;;;5032531;28;20018;-53
2024/01/19 10:46:22;;;;;;;8.20;5.28;;;17.60;63.50;;;;;;5032872;28;20040;-50
2024/01/19 10:48:50;;;;;;;10.05;5.90;;;18.40;63.10;;;;;;5032649;28;20485;-51
2024/01/19 10:51:20;;;;;;;8.23;5.28;;;18.50;60.90;;;;;;5032461;28;20029;-48
2024/01/19 10:53:49;;;;;;;8.65;5.30;;;19.20;62.30;;;;;;5035506;28;20476;-50
2024/01/19 10:56:21;;;;;;;16.33;10.13;;;19.90;61.10;;;;;;5052159;28;20037;-53
2024/01/19 10:58:48;;;;;;;10.98;5.28;;;20.20;61.60;;;;;;5052191;28;20504;-54
2024/01/19 11:01:17;;;;;;;13.75;7.22;;;20.40;61.10;;;;;;5051747;28;20112;-52
2024/01/19 11:03:44;;;;;;;10.75;6.90;;;20.50;57.70;;;;;;5052350;28;20033;-54
2024/01/19 11:06:10;;;;;;;11.15;6.95;;;20.60;57.00;;;;;;5052240;28;20021;-51
2024/01/19 11:08:37;;;;;;;10.82;5.50;;;20.60;57.60;;;;;;5052249;28;20024;-51
2024/01/19 11:11:07;;;;;;;8.75;5.30;;;20.70;54.20;;;;;;5052253;28;20048;-49
2024/01/19 11:13:43;;;;;;;11.38;6.63;;;20.60;54.10;;;;;;5052255;28;20028;-65
2024/01/19 11:16:16;;;;;;;8.70;5.00;;;20.60;56.20;;;;;;5051982;28;20499;-63
2024/01/19 11:18:44;;;;;;;5.82;3.50;;;20.20;55.10;;;;;;5047692;28;20033;-55
2024/01/19 11:21:09;;;;;;;5.65;3.45;;;19.80;53.40;;;;;;5051933;28;20035;-54
2024/01/19 11:23:37;;;;;;;6.15;4.20;;;19.80;56.80;;;;;;5052045;28;20021;-52
2024/01/19 11:26:15;;;;;;;5.97;3.70;;;20.10;53.90;;;;;;5049366;28;20021;-45
2024/01/19 11:28:58;;;;;;;7.43;4.20;;;20.40;54.50;;;;;;5051540;28;20032;-51
2024/01/19 11:31:33;;;;;;;7.57;4.18;;;19.70;53.90;;;;;;5051963;28;20043;-51
2024/01/19 11:33:59;;;;;;;8.20;4.22;;;18.90;56.10;;;;;;5051836;28;20032;-52
2024/01/19 11:36:40;;;;;;;7.72;3.50;;;18.60;55.50;;;;;;5052005;28;20025;-56
2024/01/19 11:39:08;;;;;;;7.57;4.10;;;18.10;55.10;;;;;;5052051;28;20028;-53
2024/01/19 11:41:34;;;;;;;8.32;4.00;;;18.20;56.00;;;;;;5051733;28;20020;-54
2024/01/19 11:44:04;;;;;;;7.07;4.35;;;18.80;58.20;;;;;;5052227;28;20534;-51
2024/01/19 11:46:50;;;;;;;7.75;4.45;;;19.20;56.70;;;;;;5051770;28;20049;-51
2024/01/19 11:49:32;;;;;;;7.88;3.95;;;19.10;55.00;;;;;;5051907;28;20027;-50
2024/01/19 11:52:02;;;;;;;8.25;3.95;;;19.80;54.30;;;;;;5051513;28;20021;-55
2024/01/19 11:54:29;;;;;;;6.28;3.38;;;19.80;54.20;;;;;;5034733;28;20052;-51
2024/01/19 11:57:17;;;;;;;7.10;3.63;;;19.50;54.80;;;;;;5041937;28;20113;-56
2024/01/19 11:59:43;;;;;;;6.75;3.63;;;19.40;55.70;;;;;;5026683;28;20026;-54
2024/01/19 12:02:23;;;;;;;10.90;3.50;;;19.00;56.80;;;;;;5041057;28;20052;-52
2024/01/19 12:04:52;;;;;;;5.07;3.10;;;18.40;56.10;;;;;;5039868;28;20049;-51
2024/01/19 12:07:18;;;;;;;5.63;2.85;;;18.30;56.80;;;;;;5035602;28;20480;-52
2024/01/19 12:09:44;;;;;;;5.05;2.50;;;17.80;57.00;;;;;;5027554;28;20021;-52
2024/01/19 12:12:09;;;;;;;4.28;2.25;;;17.60;57.40;;;;;;5027466;28;20039;-52
2024/01/19 12:14:35;;;;;;;6.15;3.08;;;17.20;58.30;;;;;;5030376;28;20476;-51
2024/01/19 12:17:01;;;;;;;4.43;2.53;;;17.10;58.60;;;;;;5030817;28;20125;-55
2024/01/19 12:19:27;;;;;;;3.80;2.22;;;17.20;58.50;;;;;;5031571;28;20029;-47
2024/01/19 12:21:56;;;;;;;6.25;2.35;;;17.40;57.40;;;;;;5030735;28;20025;-51
2024/01/19 12:24:22;;;;;;;4.97;1.88;;;17.60;58.00;;;;;;5030918;28;20033;-52
2024/01/19 12:26:52;;;;;;;3.53;2.03;;;17.60;57.30;;;;;;5030647;28;20392;-55
2024/01/19 12:29:31;;;;;;;4.13;2.08;;;17.80;57.60;;;;;;5030424;28;20025;-50
2024/01/19 12:32:14;;;;;;;4.93;1.75;;;17.90;56.90;;;;;;5030255;28;20027;-50
2024/01/19 12:34:40;;;;;;;4.13;2.00;;;18.70;56.90;;;;;;5019870;28;20034;-52
2024/01/19 12:37:06;;;;;;;4.35;2.10;;;19.00;56.30;;;;;;5015172;28;20034;-47
2024/01/19 12:39:31;;;;;;;6.57;2.25;;;19.40;55.20;;;;;;5024363;28;20037;-54